sim
Sign-in with your pilot id or email,
or register
Callsign
Passwort

Schedule Details

Flight Number: DLH2264 (2)
Departure: Munich Airport (EDDM) at 16:25
Arrival: Marseille Provence Airport (LFML) at 18:05
Route: Lufthansa Passenger Schedule. Enter filed route here before submitting Pirep.

Weather Information
Getting current METAR information for EDDM 220350Z 00000KT 1600 0700S R08L/0500N R08R/0700N BCFG FEW002 08/08 Q1015 TEMPO 0700 FG BKN002
Getting current METAR information for LFML 220330Z AUTO 11005KT 9999 SCT025/// BKN058/// BKN100/// ///CB 20/18 Q1014 TEMPO 2000 TSRA BKN014 BKN030CB

Schedule Frequency

Route Map